Time;durP1;ratioP1;P1;durP2;ratioP2;P2;SDS_P1;SDS_P2;PMS_P1;PMS_P2;Temp;Humidity;BMP_temperature;BMP_pressure;BME280_temperature;BME280_humidity;BME280_pressure;Samples;Min_cycle;Max_cycle;Signal;HPM_P1;HPM_P2
2022/08/16 00:00:39;;;;;;;;;;;22.70;99.90;;;;;;2026514;28;19909;-79
2022/08/16 00:01:37;;;;;;;;;;;22.70;99.90;;;;;;2027805;28;19913;-79
2022/08/16 00:02:36;;;;;;;;;;;22.80;99.90;;;;;;2027808;28;19936;-77
2022/08/16 00:03:34;;;;;;;;;;;22.70;99.90;;;;;;2027923;28;19909;-78
2022/08/16 00:04:33;;;;;;;;;;;22.70;99.90;;;;;;2027479;28;19991;-78
2022/08/16 00:05:32;;;;;;;;;;;22.80;99.90;;;;;;2027573;28;19940;-78
2022/08/16 00:06:34;;;;;;;;;;;;;;;;;;2028160;28;19920;-78
2022/08/16 00:07:43;;;;;;;;;;;22.60;99.90;;;;;;2028694;28;19955;-81
2022/08/16 00:08:41;;;;;;;;;;;22.70;99.90;;;;;;2023776;28;19931;-82
2022/08/16 00:09:40;;;;;;;;;;;22.70;99.90;;;;;;2023784;28;19916;-81
2022/08/16 00:10:38;;;;;;;;;;;22.50;99.90;;;;;;2022292;28;19909;-82
2022/08/16 00:11:38;;;;;;;;;;;22.10;99.90;;;;;;2021088;28;19908;-82
2022/08/16 00:12:40;;;;;;;;;;;22.20;99.90;;;;;;2020619;28;19928;-78
2022/08/16 00:13:39;;;;;;;;;;;22.20;99.90;;;;;;2020955;28;19913;-80
2022/08/16 00:14:37;;;;;;;;;;;22.40;99.90;;;;;;2021143;28;20425;-79
2022/08/16 00:15:44;;;;;;;;;;;22.20;99.90;;;;;;2021052;28;20352;-79
2022/08/16 00:16:43;;;;;;;;;;;22.30;99.90;;;;;;2021234;28;19909;-79
2022/08/16 00:17:42;;;;;;;;;;;22.20;99.90;;;;;;2020956;28;19992;-79
2022/08/16 00:18:40;;;;;;;;;;;22.10;99.90;;;;;;2020834;28;20385;-81
2022/08/16 00:19:40;;;;;;;;;;;22.20;99.90;;;;;;2020972;28;19962;-81
2022/08/16 00:20:40;;;;;;;;;;;22.20;99.90;;;;;;2020898;28;20356;-80
2022/08/16 00:21:39;;;;;;;;;;;22.10;99.90;;;;;;2021053;28;19916;-80
2022/08/16 00:22:39;;;;;;;;;;;22.30;99.90;;;;;;2020921;28;19909;-81
2022/08/16 00:23:38;;;;;;;;;;;22.20;99.90;;;;;;2020844;28;20372;-80
2022/08/16 00:24:36;;;;;;;;;;;22.20;99.90;;;;;;2020916;28;19931;-80
2022/08/16 00:25:35;;;;;;;;;;;22.10;99.90;;;;;;2020754;28;20370;-80
2022/08/16 00:26:33;;;;;;;;;;;22.20;99.90;;;;;;2020821;28;19909;-81
2022/08/16 00:27:32;;;;;;;;;;;22.30;99.90;;;;;;2020909;28;19944;-80
2022/08/16 00:28:30;;;;;;;;;;;22.20;99.90;;;;;;2021014;28;19969;-80
2022/08/16 00:29:29;;;;;;;;;;;22.00;99.90;;;;;;2020925;28;19909;-78
2022/08/16 00:30:27;;;;;;;;;;;22.10;99.90;;;;;;2020992;28;19955;-81
2022/08/16 00:31:28;;;;;;;;;;;22.20;99.90;;;;;;2020762;28;19917;-80
2022/08/16 00:32:27;;;;;;;;;;;22.20;99.90;;;;;;2020410;28;19999;-80
2022/08/16 00:33:26;;;;;;;;;;;22.30;99.90;;;;;;2020904;28;19909;-80
2022/08/16 00:34:24;;;;;;;;;;;22.30;99.90;;;;;;2020946;28;19916;-81
2022/08/16 00:35:25;;;;;;;;;;;22.20;99.90;;;;;;2020906;28;19909;-80
2022/08/16 00:36:24;;;;;;;;;;;22.30;99.90;;;;;;2020903;28;19909;-81
2022/08/16 00:37:23;;;;;;;;;;;22.20;99.90;;;;;;2021053;28;19915;-80
2022/08/16 00:38:22;;;;;;;;;;;22.30;99.90;;;;;;2020808;28;19909;-81
2022/08/16 00:39:21;;;;;;;;;;;22.30;99.90;;;;;;2020768;28;19912;-81
2022/08/16 00:40:21;;;;;;;;;;;22.10;99.90;;;;;;2020749;28;19931;-81
2022/08/16 00:41:20;;;;;;;;;;;22.10;99.90;;;;;;2020798;28;20201;-82
2022/08/16 00:42:19;;;;;;;;;;;22.10;99.90;;;;;;2020738;28;19909;-82
2022/08/16 00:43:19;;;;;;;;;;;22.20;99.90;;;;;;2020792;28;19921;-83
2022/08/16 00:44:19;;;;;;;;;;;22.20;99.90;;;;;;2020869;28;19920;-81
2022/08/16 00:45:38;;;;;;;;;;;22.30;99.90;;;;;;2021466;28;19978;-80
2022/08/16 00:46:56;;;;;;;;;;;22.30;99.90;;;;;;2021082;28;20130;-82
2022/08/16 00:47:55;;;;;;;;;;;22.20;99.90;;;;;;2020275;28;19909;-82
2022/08/16 00:48:54;;;;;;;;;;;22.30;99.90;;;;;;2020370;28;19916;-82
2022/08/16 00:49:52;;;;;;;;;;;22.30;99.90;;;;;;2021056;28;19968;-81
2022/08/16 00:50:51;;;;;;;;;;;22.20;99.90;;;;;;2020882;28;19913;-81
2022/08/16 00:51:50;;;;;;;;;;;22.30;99.90;;;;;;2020854;28;20330;-80
2022/08/16 00:52:49;;;;;;;;;;;22.20;99.90;;;;;;2020986;28;19932;-81
2022/08/16 00:53:48;;;;;;;;;;;22.00;99.90;;;;;;2020966;28;20379;-83
2022/08/16 00:54:46;;;;;;;;;;;22.10;99.90;;;;;;2020991;28;19958;-81
2022/08/16 00:55:47;;;;;;;;;;;22.10;99.90;;;;;;2021102;28;19990;-81
2022/08/16 00:56:47;;;;;;;;;;;22.10;99.90;;;;;;2020977;28;19909;-81
2022/08/16 00:57:48;;;;;;;;;;;22.20;99.90;;;;;;2020386;28;19936;-79
2022/08/16 00:58:47;;;;;;;;;;;22.20;99.90;;;;;;2012212;28;19909;-80
2022/08/16 00:59:45;;;;;;;;;;;22.20;99.90;;;;;;2020222;28;19916;-83
2022/08/16 01:00:46;;;;;;;;;;;22.20;99.90;;;;;;2020991;28;20000;-81
2022/08/16 01:01:45;;;;;;;;;;;22.10;99.90;;;;;;2021014;28;19999;-83
2022/08/16 01:02:43;;;;;;;;;;;22.20;99.90;;;;;;2020827;28;20306;-81
2022/08/16 01:03:44;;;;;;;;;;;22.20;99.90;;;;;;2020994;28;19916;-81
2022/08/16 01:04:42;;;;;;;;;;;22.10;99.90;;;;;;2021044;28;20421;-82
2022/08/16 01:05:41;;;;;;;;;;;22.10;99.90;;;;;;2021073;28;19908;-79
2022/08/16 01:06:40;;;;;;;;;;;22.20;99.90;;;;;;2021022;28;20291;-81
2022/08/16 01:07:41;;;;;;;;;;;22.10;99.90;;;;;;2021058;28;19916;-81
2022/08/16 01:08:41;;;;;;;;;;;22.10;99.90;;;;;;2020978;28;20327;-81
2022/08/16 01:09:40;;;;;;;;;;;22.00;99.90;;;;;;2020959;28;19909;-80
2022/08/16 01:10:39;;;;;;;;;;;22.20;99.90;;;;;;2021028;28;19971;-81
2022/08/16 01:11:38;;;;;;;;;;;22.00;99.90;;;;;;2021045;28;19954;-81
2022/08/16 01:12:37;;;;;;;;;;;22.00;99.90;;;;;;2021041;28;20127;-81
2022/08/16 01:13:36;;;;;;;;;;;21.90;99.90;;;;;;2020862;28;20441;-80
2022/08/16 01:14:48;;;;;;;;;;;22.00;99.90;;;;;;2021357;28;19909;-81
2022/08/16 01:15:51;;;;;;;;;;;22.00;99.90;;;;;;2020580;28;19940;-80
2022/08/16 01:16:50;;;;;;;;;;;22.00;99.90;;;;;;2020395;28;19925;-80
2022/08/16 01:17:49;;;;;;;;;;;22.00;99.90;;;;;;2020901;28;19928;-81
2022/08/16 01:19:04;;;;;;;;;;;22.10;99.90;;;;;;2020992;28;19909;-80
2022/08/16 01:20:05;;;;;;;;;;;22.20;99.90;;;;;;2020914;28;19909;-80
2022/08/16 01:21:10;;;;;;;;;;;22.20;99.90;;;;;;2020155;28;19908;-81
2022/08/16 01:22:15;;;;;;;;;;;22.30;99.90;;;;;;2020615;28;19908;-79
2022/08/16 01:23:21;;;;;;;;;;;22.10;99.90;;;;;;2020327;28;19943;-80
2022/08/16 01:24:23;;;;;;;;;;;22.20;99.90;;;;;;2020569;28;19916;-79
2022/08/16 01:25:27;;;;;;;;;;;22.40;99.90;;;;;;2021119;28;19916;-81
2022/08/16 01:26:29;;;;;;;;;;;22.20;99.90;;;;;;2021409;28;20000;-80
2022/08/16 01:27:31;;;;;;;;;;;22.30;99.90;;;;;;2020951;28;19921;-79
2022/08/16 01:28:29;;;;;;;;;;;22.10;99.90;;;;;;2021153;28;19940;-81
2022/08/16 01:29:35;;;;;;;;;;;22.20;99.90;;;;;;2020906;28;19958;-80
2022/08/16 01:30:35;;;;;;;;;;;22.10;99.90;;;;;;2021175;28;20340;-80
2022/08/16 01:31:34;;;;;;;;;;;22.10;99.90;;;;;;2021158;28;20087;-81
2022/08/16 01:32:41;;;;;;;;;;;22.20;99.90;;;;;;2021178;28;19916;-80
2022/08/16 01:33:39;;;;;;;;;;;22.10;99.90;;;;;;2020972;28;19972;-81
2022/08/16 01:34:38;;;;;;;;;;;22.10;99.90;;;;;;2020815;28;19916;-81
2022/08/16 01:35:46;;;;;;;;;;;22.10;99.90;;;;;;2021028;28;20101;-82
2022/08/16 01:36:44;;;;;;;;;;;22.20;99.90;;;;;;2021006;28;19908;-82
2022/08/16 01:37:45;;;;;;;;;;;22.30;99.90;;;;;;2020733;28;20283;-81
2022/08/16 01:38:46;;;;;;;;;;;22.10;99.90;;;;;;2020856;28;19909;-81
2022/08/16 01:39:44;;;;;;;;;;;22.00;99.90;;;;;;2021106;28;19970;-81
2022/08/16 01:40:43;;;;;;;;;;;22.10;99.90;;;;;;2021036;28;19995;-79
2022/08/16 01:41:43;;;;;;;;;;;22.10;99.90;;;;;;2021238;28;20011;-81
2022/08/16 01:42:42;;;;;;;;;;;22.00;99.90;;;;;;2021021;28;20372;-83
2022/08/16 01:43:42;;;;;;;;;;;22.00;99.90;;;;;;2020921;28;20340;-82
2022/08/16 01:44:41;;;;;;;;;;;22.00;99.90;;;;;;2021974;28;19987;-83
2022/08/16 01:45:39;;;;;;;;;;;22.20;99.90;;;;;;2021793;28;20352;-83
2022/08/16 01:46:40;;;;;;;;;;;22.00;99.90;;;;;;2021837;28;19967;-82
2022/08/16 01:47:40;;;;;;;;;;;22.00;99.90;;;;;;2021457;28;19998;-81
2022/08/16 01:48:39;;;;;;;;;;;21.90;99.90;;;;;;2021807;28;19942;-83
2022/08/16 01:49:41;;;;;;;;;;;21.90;99.90;;;;;;2022186;28;19967;-80
2022/08/16 01:50:40;;;;;;;;;;;21.90;99.90;;;;;;2022508;28;19909;-81
2022/08/16 01:51:40;;;;;;;;;;;22.00;99.90;;;;;;2022252;28;19916;-79
2022/08/16 01:52:42;;;;;;;;;;;;;;;;;;2022341;28;19916;-80
2022/08/16 01:53:43;;;;;;;;;;;21.70;99.90;;;;;;2021833;28;19995;-80
2022/08/16 01:54:42;;;;;;;;;;;21.90;99.90;;;;;;2021849;28;20326;-83
2022/08/16 01:55:41;;;;;;;;;;;22.10;99.90;;;;;;2021623;28;20024;-80
2022/08/16 01:56:40;;;;;;;;;;;21.90;99.90;;;;;;2021744;28;19912;-80
2022/08/16 01:57:38;;;;;;;;;;;22.00;99.90;;;;;;2021319;28;20326;-83
2022/08/16 01:58:37;;;;;;;;;;;21.90;99.90;;;;;;2021598;28;20429;-82
2022/08/16 01:59:36;;;;;;;;;;;21.90;99.90;;;;;;2029262;28;19912;-82
2022/08/16 02:00:34;;;;;;;;;;;22.00;99.90;;;;;;2021983;28;19955;-82
2022/08/16 02:01:33;;;;;;;;;;;21.70;99.90;;;;;;2022348;28;19916;-81
2022/08/16 02:02:32;;;;;;;;;;;21.90;99.90;;;;;;2023068;28;19909;-80
2022/08/16 02:03:30;;;;;;;;;;;21.90;99.90;;;;;;2022546;28;19915;-81
2022/08/16 02:04:30;;;;;;;;;;;21.90;99.90;;;;;;2022677;28;19932;-79
2022/08/16 02:05:28;;;;;;;;;;;22.00;99.90;;;;;;2022689;28;19917;-82
2022/08/16 02:06:28;;;;;;;;;;;;;;;;;;2022667;28;20319;-82
2022/08/16 02:07:27;;;;;;;;;;;;;;;;;;2023230;28;19916;-81
2022/08/16 02:08:32;;;;;;;;;;;;;;;;;;2025759;28;20333;-78
2022/08/16 02:09:36;;;;;;;;;;;;;;;;;;2025403;28;19979;-82
2022/08/16 02:10:34;;;;;;;;;;;;;;;;;;2024940;28;20336;-80
2022/08/16 02:11:34;;;;;;;;;;;21.60;99.90;;;;;;2025864;28;19908;-80
2022/08/16 02:12:33;;;;;;;;;;;21.90;99.90;;;;;;2024996;28;19916;-81
2022/08/16 02:13:31;;;;;;;;;;;21.90;99.90;;;;;;2025350;28;19920;-80
2022/08/16 02:14:30;;;;;;;;;;;21.80;99.90;;;;;;2025241;28;19909;-80
2022/08/16 02:15:29;;;;;;;;;;;21.90;99.90;;;;;;2024993;28;20375;-79
2022/08/16 02:16:28;;;;;;;;;;;21.70;99.90;;;;;;2025967;28;19908;-81
2022/08/16 02:17:26;;;;;;;;;;;21.70;99.90;;;;;;2026678;28;20007;-81
2022/08/16 02:18:25;;;;;;;;;;;21.70;99.90;;;;;;2026698;28;19948;-80
2022/08/16 02:19:26;;;;;;;;;;;21.70;99.90;;;;;;2026728;28;19912;-80
2022/08/16 02:20:25;;;;;;;;;;;21.70;99.90;;;;;;2026887;28;19908;-81
2022/08/16 02:21:24;;;;;;;;;;;21.70;99.90;;;;;;2026407;28;19915;-81
2022/08/16 02:22:23;;;;;;;;;;;21.90;99.90;;;;;;2025452;28;19908;-82
2022/08/16 02:23:21;;;;;;;;;;;21.80;99.90;;;;;;2026548;28;19966;-80
2022/08/16 02:24:21;;;;;;;;;;;21.90;99.90;;;;;;2026918;28;19940;-80
2022/08/16 02:25:19;;;;;;;;;;;21.70;99.90;;;;;;2025463;28;19912;-83
2022/08/16 02:26:18;;;;;;;;;;;21.90;99.90;;;;;;2024496;28;19909;-81
2022/08/16 02:27:17;;;;;;;;;;;21.80;99.90;;;;;;2022242;28;20020;-83
2022/08/16 02:28:16;;;;;;;;;;;21.90;99.90;;;;;;2022300;28;20371;-82
2022/08/16 02:29:17;;;;;;;;;;;21.70;99.90;;;;;;2022159;28;19909;-82
2022/08/16 02:30:17;;;;;;;;;;;21.80;99.90;;;;;;2022123;28;20016;-82
2022/08/16 02:31:15;;;;;;;;;;;21.70;99.90;;;;;;2022147;28;19909;-82
2022/08/16 02:32:15;;;;;;;;;;;21.80;99.90;;;;;;2022168;28;19909;-82
2022/08/16 02:33:13;;;;;;;;;;;21.70;99.90;;;;;;2021890;28;19909;-81
2022/08/16 02:34:12;;;;;;;;;;;21.70;99.90;;;;;;2021783;28;19909;-80
2022/08/16 02:35:11;;;;;;;;;;;21.80;99.90;;;;;;2021926;28;19948;-82
2022/08/16 02:36:11;;;;;;;;;;;21.80;99.90;;;;;;2021970;28;19909;-82
2022/08/16 02:37:10;;;;;;;;;;;21.90;99.90;;;;;;2022038;28;19916;-81
2022/08/16 02:38:09;;;;;;;;;;;21.80;99.90;;;;;;2021793;28;19919;-83
2022/08/16 02:39:08;;;;;;;;;;;21.80;99.90;;;;;;2022096;28;20003;-81
2022/08/16 02:40:08;;;;;;;;;;;21.70;99.90;;;;;;2022237;28;19909;-80
2022/08/16 02:41:08;;;;;;;;;;;21.70;99.90;;;;;;2022260;28;20015;-81
2022/08/16 02:42:07;;;;;;;;;;;21.70;99.90;;;;;;2022697;28;19909;-81
2022/08/16 02:43:05;;;;;;;;;;;21.70;99.90;;;;;;2022769;28;20378;-80
2022/08/16 02:44:05;;;;;;;;;;;21.60;99.90;;;;;;2025925;28;20264;-80
2022/08/16 02:45:04;;;;;;;;;;;21.60;99.90;;;;;;2024811;28;20399;-79
2022/08/16 02:46:03;;;;;;;;;;;21.70;99.90;;;;;;2027861;28;19997;-79
2022/08/16 02:47:02;;;;;;;;;;;21.50;99.90;;;;;;2026514;28;19909;-79
2022/08/16 02:48:00;;;;;;;;;;;21.60;99.90;;;;;;2025174;28;19959;-81
2022/08/16 02:48:59;;;;;;;;;;;;;;;;;;2024587;28;19981;-81
2022/08/16 02:49:58;;;;;;;;;;;;;;;;;;2022502;28;19909;-81
2022/08/16 02:50:57;;;;;;;;;;;;;;;;;;2023075;28;19980;-80
2022/08/16 02:51:55;;;;;;;;;;;21.50;99.90;;;;;;2022661;28;19917;-79
2022/08/16 02:52:54;;;;;;;;;;;21.60;99.90;;;;;;2022605;28;20360;-80
2022/08/16 02:53:53;;;;;;;;;;;21.60;99.90;;;;;;2023576;28;19955;-79
2022/08/16 02:54:52;;;;;;;;;;;21.80;99.90;;;;;;2022077;28;20007;-80
2022/08/16 02:55:51;;;;;;;;;;;21.60;99.90;;;;;;2021961;28;19908;-81
2022/08/16 02:56:49;;;;;;;;;;;21.60;99.90;;;;;;2022029;28;20287;-82
2022/08/16 02:57:48;;;;;;;;;;;21.60;99.90;;;;;;2021921;28;19909;-82
2022/08/16 02:58:48;;;;;;;;;;;21.60;99.90;;;;;;2021927;28;20257;-81
2022/08/16 02:59:46;;;;;;;;;;;21.50;99.90;;;;;;2021832;28;20252;-82
2022/08/16 03:00:45;;;;;;;;;;;21.50;99.90;;;;;;2021756;28;19992;-82
2022/08/16 03:01:43;;;;;;;;;;;21.50;99.90;;;;;;2021008;28;19908;-83
2022/08/16 03:02:43;;;;;;;;;;;21.70;99.90;;;;;;2020874;28;19909;-82
2022/08/16 03:03:42;;;;;;;;;;;21.60;99.90;;;;;;2021747;28;20375;-82
2022/08/16 03:04:41;;;;;;;;;;;21.60;99.90;;;;;;2021732;28;19909;-80
2022/08/16 03:05:40;;;;;;;;;;;21.50;99.90;;;;;;2021728;28;20356;-83
2022/08/16 03:06:39;;;;;;;;;;;21.40;99.90;;;;;;2021793;28;19920;-83
2022/08/16 03:07:38;;;;;;;;;;;21.50;99.90;;;;;;2021682;28;19948;-82
2022/08/16 03:08:36;;;;;;;;;;;21.40;99.90;;;;;;2021639;28;20382;-81
2022/08/16 03:09:35;;;;;;;;;;;;;;;;;;2021849;28;19909;-82
2022/08/16 03:10:34;;;;;;;;;;;;;;;;;;2021080;28;19909;-82
2022/08/16 03:11:33;;;;;;;;;;;;;;;;;;2021057;28;19916;-81
2022/08/16 03:12:32;;;;;;;;;;;;;;;;;;2020259;28;19921;-81
2022/08/16 03:13:31;;;;;;;;;;;21.30;99.90;;;;;;2021047;28;19909;-82
2022/08/16 03:14:30;;;;;;;;;;;21.40;99.90;;;;;;2021701;28;19909;-81
2022/08/16 03:15:29;;;;;;;;;;;21.30;99.90;;;;;;2020811;28;19913;-80
2022/08/16 03:16:27;;;;;;;;;;;21.20;99.90;;;;;;2020843;28;19908;-81
2022/08/16 03:17:27;;;;;;;;;;;;;;;;;;2020348;28;19908;-80
2022/08/16 03:18:27;;;;;;;;;;;;;;;;;;2020918;28;20058;-82
2022/08/16 03:19:27;;;;;;;;;;;;;;;;;;2021451;28;19920;-81
2022/08/16 03:20:27;;;;;;;;;;;;;;;;;;2021460;28;20054;-83
2022/08/16 03:21:27;;;;;;;;;;;;;;;;;;2021472;28;20050;-83
2022/08/16 03:22:26;;;;;;;;;;;21.20;99.90;;;;;;2021595;28;19909;-81
2022/08/16 03:23:25;;;;;;;;;;;21.20;99.90;;;;;;2021630;28;20312;-81
2022/08/16 03:24:27;;;;;;;;;;;;;;;;;;2021351;28;20347;-81
2022/08/16 03:25:25;;;;;;;;;;;21.00;99.90;;;;;;2021531;28;19908;-81
2022/08/16 03:26:23;;;;;;;;;;;21.20;99.90;;;;;;2021527;28;20019;-80
2022/08/16 03:27:23;;;;;;;;;;;;;;;;;;2021391;28;20017;-79
2022/08/16 03:28:23;;;;;;;;;;;;;;;;;;2021680;28;20004;-80
2022/08/16 03:29:26;;;;;;;;;;;;;;;;;;2021469;28;20486;-80
2022/08/16 03:30:26;;;;;;;;;;;;;;;;;;2021670;28;20015;-81
2022/08/16 03:31:24;;;;;;;;;;;21.20;99.90;;;;;;2020800;28;19954;-81
2022/08/16 03:32:24;;;;;;;;;;;;;;;;;;2020852;28;19909;-80
2022/08/16 03:33:25;;;;;;;;;;;;;;;;;;2021542;28;19908;-81
2022/08/16 03:34:27;;;;;;;;;;;;;;;;;;2021815;28;20340;-81
2022/08/16 03:35:29;;;;;;;;;;;;;;;;;;2021520;28;19938;-81
2022/08/16 03:36:33;;;;;;;;;;;;;;;;;;2021280;28;19932;-83
2022/08/16 03:37:44;;;;;;;;;;;;;;;;;;2021348;28;20264;-81
2022/08/16 03:38:51;;;;;;;;;;;;;;;;;;2021416;28;20347;-82
2022/08/16 03:39:51;;;;;;;;;;;;;;;;;;2021281;28;19995;-81
2022/08/16 03:40:54;;;;;;;;;;;;;;;;;;2021257;28;19909;-81
2022/08/16 03:41:58;;;;;;;;;;;;;;;;;;2021502;28;19943;-80
2022/08/16 03:42:59;;;;;;;;;;;;;;;;;;2022199;28;20000;-82
2022/08/16 03:43:58;;;;;;;;;;;;;;;;;;2025888;28;19912;-81
2022/08/16 03:44:57;;;;;;;;;;;;;;;;;;2025840;28;19913;-81
2022/08/16 03:45:56;;;;;;;;;;;;;;;;;;2025731;28;19976;-81
2022/08/16 03:46:55;;;;;;;;;;;;;;;;;;2025483;28;19916;-80
2022/08/16 03:47:54;;;;;;;;;;;;;;;;;;2026355;28;20318;-81
2022/08/16 03:48:54;;;;;;;;;;;;;;;;;;2026179;28;19913;-80
2022/08/16 03:49:52;;;;;;;;;;;20.70;99.90;;;;;;2025662;28;20426;-80
2022/08/16 03:50:51;;;;;;;;;;;20.90;99.90;;;;;;2026315;28;19931;-80
2022/08/16 03:51:50;;;;;;;;;;;20.80;99.90;;;;;;2025620;28;19909;-81
2022/08/16 03:52:48;;;;;;;;;;;20.90;99.90;;;;;;2026210;28;19909;-82
2022/08/16 03:53:46;;;;;;;;;;;20.90;99.90;;;;;;2025643;28;19912;-81
2022/08/16 03:54:46;;;;;;;;;;;20.90;99.90;;;;;;2024264;28;19909;-79
2022/08/16 03:55:45;;;;;;;;;;;20.80;99.90;;;;;;2023854;28;19909;-80
2022/08/16 03:56:44;;;;;;;;;;;20.90;99.90;;;;;;2024827;28;19913;-80
2022/08/16 03:57:42;;;;;;;;;;;20.60;99.90;;;;;;2026872;28;19953;-81
2022/08/16 03:58:40;;;;;;;;;;;20.70;99.90;;;;;;2026586;28;19909;-82
2022/08/16 03:59:39;;;;;;;;;;;20.70;99.90;;;;;;2029478;28;19972;-80
2022/08/16 04:00:38;;;;;;;;;;;20.80;99.90;;;;;;2027491;28;19913;-80
2022/08/16 04:01:36;;;;;;;;;;;20.80;99.90;;;;;;2028364;28;19908;-78
2022/08/16 04:02:36;;;;;;;;;;;;;;;;;;2027708;28;19931;-78
2022/08/16 04:03:36;;;;;;;;;;;;;;;;;;2025508;28;20466;-78
2022/08/16 04:04:37;;;;;;;;;;;;;;;;;;2025288;28;19916;-79
2022/08/16 04:05:42;;;;;;;;;;;20.40;99.90;;;;;;2024457;28;19909;-80
2022/08/16 04:06:40;;;;;;;;;;;20.60;99.90;;;;;;2025116;28;19955;-79
2022/08/16 04:07:39;;;;;;;;;;;20.70;99.90;;;;;;2025080;28;19909;-78
2022/08/16 04:08:37;;;;;;;;;;;20.80;99.90;;;;;;2028541;28;19919;-78
2022/08/16 04:09:36;;;;;;;;;;;20.80;99.90;;;;;;2026607;28;20020;-80
2022/08/16 04:10:34;;;;;;;;;;;20.90;99.90;;;;;;2024752;28;20193;-80
2022/08/16 04:11:33;;;;;;;;;;;20.70;99.90;;;;;;2024718;28;19980;-80
2022/08/16 04:12:31;;;;;;;;;;;20.60;99.90;;;;;;2027340;28;20001;-78
2022/08/16 04:13:30;;;;;;;;;;;20.60;99.90;;;;;;2028731;28;19909;-76
2022/08/16 04:14:28;;;;;;;;;;;20.70;99.90;;;;;;2028849;28;19908;-78
2022/08/16 04:15:28;;;;;;;;;;;20.80;99.90;;;;;;2029173;28;19916;-79
2022/08/16 04:16:26;;;;;;;;;;;20.90;99.90;;;;;;2029361;28;19909;-77
2022/08/16 04:17:25;;;;;;;;;;;20.90;99.90;;;;;;2027957;28;20003;-79
2022/08/16 04:18:24;;;;;;;;;;;21.00;99.90;;;;;;2028852;28;19916;-79
2022/08/16 04:19:24;;;;;;;;;;;21.00;99.90;;;;;;2028783;28;19975;-81
2022/08/16 04:20:24;;;;;;;;;;;21.00;99.90;;;;;;2028537;28;19951;-82
2022/08/16 04:21:23;;;;;;;;;;;21.10;99.90;;;;;;2027363;28;19983;-79
2022/08/16 04:22:21;;;;;;;;;;;21.00;99.90;;;;;;2023164;28;19916;-81
2022/08/16 04:23:22;;;;;;;;;;;21.10;99.90;;;;;;2022630;28;19994;-83
2022/08/16 04:24:20;;;;;;;;;;;21.20;99.90;;;;;;2021041;28;19913;-82
2022/08/16 04:25:19;;;;;;;;;;;21.20;99.90;;;;;;2021062;28;19909;-80
2022/08/16 04:26:17;;;;;;;;;;;21.00;99.90;;;;;;2020979;28;19909;-85
2022/08/16 04:27:18;;;;;;;;;;;21.00;99.90;;;;;;2021029;28;19909;-83
2022/08/16 04:28:16;;;;;;;;;;;21.00;99.90;;;;;;2021256;28;19916;-82
2022/08/16 04:29:15;;;;;;;;;;;21.00;99.90;;;;;;2021276;28;19916;-83
2022/08/16 04:30:15;;;;;;;;;;;;;;;;;;2020604;28;19909;-84
2022/08/16 04:31:13;;;;;;;;;;;20.90;99.90;;;;;;2020557;28;19974;-82
2022/08/16 04:32:12;;;;;;;;;;;21.00;99.90;;;;;;2020824;28;19913;-82
2022/08/16 04:33:10;;;;;;;;;;;21.20;99.90;;;;;;2021023;28;19915;-82
2022/08/16 04:34:09;;;;;;;;;;;21.10;99.90;;;;;;2021226;28;19909;-81
2022/08/16 04:35:09;;;;;;;;;;;21.00;99.90;;;;;;2021487;28;19988;-82
2022/08/16 04:36:10;;;;;;;;;;;21.00;99.90;;;;;;2021228;28;19908;-84
2022/08/16 04:37:08;;;;;;;;;;;20.90;99.90;;;;;;2021128;28;20386;-84
2022/08/16 04:38:07;;;;;;;;;;;21.00;99.90;;;;;;2020936;28;19909;-88
2022/08/16 04:39:05;;;;;;;;;;;20.90;99.90;;;;;;2021113;28;20193;-83
2022/08/16 04:40:06;;;;;;;;;;;21.00;99.90;;;;;;2020221;28;19952;-83
2022/08/16 04:41:04;;;;;;;;;;;21.00;99.90;;;;;;2020378;28;20287;-84
2022/08/16 04:42:04;;;;;;;;;;;21.10;99.90;;;;;;2021078;28;19952;-81
2022/08/16 04:43:03;;;;;;;;;;;21.00;99.90;;;;;;2021051;28;19912;-85
2022/08/16 04:44:01;;;;;;;;;;;21.10;99.90;;;;;;2020804;28;19909;-84
2022/08/16 04:45:00;;;;;;;;;;;21.10;99.90;;;;;;2021750;28;20395;-85
2022/08/16 04:45:59;;;;;;;;;;;21.30;99.90;;;;;;2027908;28;19908;-82
2022/08/16 04:46:59;;;;;;;;;;;21.10;99.90;;;;;;2029442;28;19919;-77
2022/08/16 04:47:58;;;;;;;;;;;21.20;99.90;;;;;;2029845;28;19920;-77
2022/08/16 04:48:58;;;;;;;;;;;21.10;99.90;;;;;;2028513;28;19916;-82
2022/08/16 04:49:56;;;;;;;;;;;21.20;99.90;;;;;;2022474;28;19909;-78
2022/08/16 04:50:55;;;;;;;;;;;21.20;99.90;;;;;;2024217;28;20264;-78
2022/08/16 04:51:53;;;;;;;;;;;21.30;99.90;;;;;;2023973;28;20015;-79
2022/08/16 04:52:52;;;;;;;;;;;21.20;99.90;;;;;;2022542;28;19970;-79
2022/08/16 04:53:52;;;;;;;;;;;;;;;;;;2023673;28;20025;-77
2022/08/16 04:54:51;;;;;;;;;;;;;;;;;;2022507;28;19909;-77
2022/08/16 04:55:53;;;;;;;;;;;;;;;;;;2020864;28;19959;-77
2022/08/16 04:56:51;;;;;;;;;;;21.10;99.90;;;;;;2020227;28;19916;-76
2022/08/16 04:57:51;;;;;;;;;;;;;;;;;;2020881;28;19996;-78
2022/08/16 04:58:52;;;;;;;;;;;;;;;;;;2020984;28;19909;-78
2022/08/16 04:59:54;;;;;;;;;;;;;;;;;;2022842;28;19909;-76
2022/08/16 05:00:54;;;;;;;;;;;;;;;;;;2021038;28;20660;-78
2022/08/16 05:01:55;;;;;;;;;;;;;;;;;;2020269;28;19959;-77
2022/08/16 05:02:54;;;;;;;;;;;21.10;99.90;;;;;;2019925;28;19919;-75
2022/08/16 05:03:53;;;;;;;;;;;21.40;99.90;;;;;;2020333;28;19916;-78
2022/08/16 05:04:52;;;;;;;;;;;21.20;99.90;;;;;;2026207;28;19920;-76
2022/08/16 05:05:51;;;;;;;;;;;21.30;99.90;;;;;;2026403;28;19944;-75
2022/08/16 05:06:50;;;;;;;;;;;21.50;99.90;;;;;;2021915;28;19908;-77
2022/08/16 05:07:48;;;;;;;;;;;21.20;99.90;;;;;;2021897;28;19909;-77
2022/08/16 05:08:47;;;;;;;;;;;20.90;99.90;;;;;;2020787;28;19951;-77
2022/08/16 05:09:45;;;;;;;;;;;20.90;99.90;;;;;;2020875;28;19916;-77
2022/08/16 05:10:44;;;;;;;;;;;20.90;99.90;;;;;;2020801;28;19908;-76
2022/08/16 05:11:42;;;;;;;;;;;21.00;99.90;;;;;;2020811;28;19916;-82
2022/08/16 05:12:41;;;;;;;;;;;20.90;99.90;;;;;;2020642;28;20217;-78
2022/08/16 05:13:41;;;;;;;;;;;20.90;99.90;;;;;;2020051;28;19912;-79
2022/08/16 05:14:39;;;;;;;;;;;20.90;99.90;;;;;;2020196;28;20384;-80
2022/08/16 05:15:38;;;;;;;;;;;21.00;99.90;;;;;;2020731;28;19952;-78
2022/08/16 05:16:36;;;;;;;;;;;21.00;99.90;;;;;;2020929;28;20363;-78
2022/08/16 05:17:35;;;;;;;;;;;21.10;99.90;;;;;;2020966;28;19957;-78
2022/08/16 05:18:34;;;;;;;;;;;21.20;99.90;;;;;;2021808;28;19951;-79
2022/08/16 05:19:33;;;;;;;;;;;21.00;99.90;;;;;;2022346;28;19920;-78
2022/08/16 05:20:31;;;;;;;;;;;21.00;99.90;;;;;;2023103;28;20330;-79
2022/08/16 05:21:34;;;;;;;;;;;21.20;99.90;;;;;;2023312;28;19969;-79
2022/08/16 05:22:34;;;;;;;;;;;21.20;99.90;;;;;;2021595;28;19909;-80
2022/08/16 05:23:33;;;;;;;;;;;21.20;99.90;;;;;;2021893;28;19909;-79
2022/08/16 05:24:31;;;;;;;;;;;21.30;99.90;;;;;;2022188;28;19962;-78
2022/08/16 05:25:30;;;;;;;;;;;21.40;99.90;;;;;;2022346;28;19948;-78
2022/08/16 05:26:29;;;;;;;;;;;21.30;99.90;;;;;;2022280;28;19915;-79
2022/08/16 05:27:28;;;;;;;;;;;21.30;99.90;;;;;;2022622;28;19909;-77
2022/08/16 05:28:26;;;;;;;;;;;21.30;99.90;;;;;;2025043;28;19968;-77
2022/08/16 05:29:25;;;;;;;;;;;21.20;99.90;;;;;;2021792;28;20281;-78
2022/08/16 05:30:24;;;;;;;;;;;21.20;99.90;;;;;;2022265;28;20245;-78
2022/08/16 05:31:26;;;;;;;;;;;21.30;99.90;;;;;;2022576;28;19909;-76
2022/08/16 05:32:25;;;;;;;;;;;21.30;99.90;;;;;;2021529;28;19909;-79
2022/08/16 05:33:24;;;;;;;;;;;21.40;99.90;;;;;;2021484;28;19913;-78
2022/08/16 05:34:23;;;;;;;;;;;21.50;99.90;;;;;;2022181;28;19909;-78
2022/08/16 05:35:22;;;;;;;;;;;21.30;99.90;;;;;;2022394;28;19913;-77
2022/08/16 05:37:11;;;;;;;;;;;21.40;91.70;;;;;;2036080;27;19964;-73
2022/08/16 05:38:10;;;;;;;;;;;;;;;;;;2036083;28;19988;-72
2022/08/16 05:39:08;;;;;;;;;;;21.70;91.50;;;;;;2036064;28;20136;-72
2022/08/16 05:40:09;;;;;;;30.27;24.50;;;21.70;91.40;;;;;;2035547;28;19999;-71
2022/08/16 05:41:08;;;;;;;;;;;21.80;91.30;;;;;;2035985;28;20066;-74
2022/08/16 05:42:06;;;;;;;;;;;21.90;91.10;;;;;;2036491;28;19980;-72
2022/08/16 05:43:05;;;;;;;;;;;21.80;91.00;;;;;;2036589;28;19910;-73
2022/08/16 05:44:04;;;;;;;;;;;21.80;91.10;;;;;;2036043;28;19904;-71
2022/08/16 05:45:03;;;;;;;;;;;21.80;91.10;;;;;;2035945;28;20267;-71
2022/08/16 05:46:03;;;;;;;;;;;;;;;;;;2036036;28;20347;-72
2022/08/16 05:47:01;;;;;;;;;;;22.00;90.80;;;;;;2036100;28;19905;-72
2022/08/16 05:48:00;;;;;;;;;;;22.00;90.80;;;;;;2036257;28;20365;-73
2022/08/16 05:48:59;;;;;;;23.10;20.45;;;22.00;90.80;;;;;;2036233;28;20356;-72
2022/08/16 05:49:58;;;;;;;;;;;22.10;90.80;;;;;;2036470;28;19904;-72
2022/08/16 05:50:56;;;;;;;;;;;22.10;90.50;;;;;;2036199;28;19905;-73
2022/08/16 05:51:55;;;;;;;27.20;21.55;;;22.10;90.70;;;;;;2034723;28;19912;-72
2022/08/16 05:52:53;;;;;;;27.70;24.70;;;22.20;90.50;;;;;;2034670;28;20028;-72
2022/08/16 05:53:52;;;;;;;;;;;22.20;90.40;;;;;;2035711;28;20075;-72
2022/08/16 05:54:50;;;;;;;;;;;22.30;90.30;;;;;;2035751;28;20252;-72
2022/08/16 05:55:49;;;;;;;;;;;22.20;90.20;;;;;;2035455;28;20332;-71